logo
Search for airport 
image banner adimage banner adimage banner ad
image banner ad

CDT2 - Hoopers Lake

Located in , Canada

ICAO - CDT2, IATA -

Data provided by Airmate  

General information

Coordinates: N43°57'14" W65°59'27"
Elevation is 100 feet MSL.
Magnetic variation is -18° East
View others Airports in Nova Scotia

Operational data

Special qualification required
Current time UTC:
Current local time:
Weather at : CYQI - Yarmouth ( 16 km )
METAR: CYQI 230300Z 29004KT 15SM SKC 03/M00 A3013 RMK SLP206
View NOTAMs / SUP AIP / TFR affecting this airport [VIEW]
Communications frequencies: [VIEW]

Runways:

RWY identifierQFULength (ft)Width (ft)SurfaceLDA (ft)
W00WATER

Airport contact information

Address: Canada

Satellite view of CDT2